sensor_id;sensor_type;location;lat;lon;timestamp;pressure;altitude;pressure_sealevel;temperature
23208;BMP180;11773;52.570;13.052;2023-03-08T00:01:43;99452.00;;;8.50
23208;BMP180;11773;52.570;13.052;2023-03-08T00:04:12;99449.00;;;8.50
23208;BMP180;11773;52.570;13.052;2023-03-08T00:06:42;99468.00;;;8.50
23208;BMP180;11773;52.570;13.052;2023-03-08T00:09:11;99459.00;;;8.50
23208;BMP180;11773;52.570;13.052;2023-03-08T00:11:41;99469.00;;;8.50
23208;BMP180;11773;52.570;13.052;2023-03-08T00:14:10;99475.00;;;8.50
23208;BMP180;11773;52.570;13.052;2023-03-08T00:16:40;99468.00;;;8.50
23208;BMP180;11773;52.570;13.052;2023-03-08T00:19:09;99470.00;;;8.40
23208;BMP180;11773;52.570;13.052;2023-03-08T00:21:39;99468.00;;;8.40
23208;BMP180;11773;52.570;13.052;2023-03-08T00:24:09;99468.00;;;8.40
23208;BMP180;11773;52.570;13.052;2023-03-08T00:26:39;99478.00;;;8.40
23208;BMP180;11773;52.570;13.052;2023-03-08T00:29:09;99466.00;;;8.30
23208;BMP180;11773;52.570;13.052;2023-03-08T00:31:38;99468.00;;;8.30
23208;BMP180;11773;52.570;13.052;2023-03-08T00:34:08;99477.00;;;8.30
23208;BMP180;11773;52.570;13.052;2023-03-08T00:36:37;99483.00;;;8.30
23208;BMP180;11773;52.570;13.052;2023-03-08T00:39:07;99484.00;;;8.30
23208;BMP180;11773;52.570;13.052;2023-03-08T00:41:37;99495.00;;;8.30
23208;BMP180;11773;52.570;13.052;2023-03-08T00:44:07;99493.00;;;8.30
23208;BMP180;11773;52.570;13.052;2023-03-08T00:46:36;99490.00;;;8.30
23208;BMP180;11773;52.570;13.052;2023-03-08T00:49:06;99486.00;;;8.20
23208;BMP180;11773;52.570;13.052;2023-03-08T00:51:35;99487.00;;;8.20
23208;BMP180;11773;52.570;13.052;2023-03-08T00:54:05;99494.00;;;8.20
23208;BMP180;11773;52.570;13.052;2023-03-08T00:56:34;99501.00;;;8.20
23208;BMP180;11773;52.570;13.052;2023-03-08T00:59:03;99492.00;;;8.20
23208;BMP180;11773;52.570;13.052;2023-03-08T01:01:33;99500.00;;;8.20
23208;BMP180;11773;52.570;13.052;2023-03-08T01:04:03;99498.00;;;8.20
23208;BMP180;11773;52.570;13.052;2023-03-08T01:06:32;99503.00;;;8.10
23208;BMP180;11773;52.570;13.052;2023-03-08T01:09:02;99513.00;;;8.10
23208;BMP180;11773;52.570;13.052;2023-03-08T01:11:32;99511.00;;;8.10
23208;BMP180;11773;52.570;13.052;2023-03-08T01:14:05;99521.00;;;8.10
23208;BMP180;11773;52.570;13.052;2023-03-08T01:16:36;99529.00;;;8.10
23208;BMP180;11773;52.570;13.052;2023-03-08T01:19:05;99510.00;;;8.10
23208;BMP180;11773;52.570;13.052;2023-03-08T01:21:35;99505.00;;;8.00
23208;BMP180;11773;52.570;13.052;2023-03-08T01:24:05;99520.00;;;8.00
23208;BMP180;11773;52.570;13.052;2023-03-08T01:26:34;99518.00;;;8.00
23208;BMP180;11773;52.570;13.052;2023-03-08T01:29:04;99515.00;;;8.00
23208;BMP180;11773;52.570;13.052;2023-03-08T01:31:34;99516.00;;;8.00
23208;BMP180;11773;52.570;13.052;2023-03-08T01:34:03;99523.00;;;8.00
23208;BMP180;11773;52.570;13.052;2023-03-08T01:36:33;99520.00;;;8.00
23208;BMP180;11773;52.570;13.052;2023-03-08T01:39:02;99525.00;;;8.00
23208;BMP180;11773;52.570;13.052;2023-03-08T01:41:32;99516.00;;;7.90
23208;BMP180;11773;52.570;13.052;2023-03-08T01:44:02;99522.00;;;8.00
23208;BMP180;11773;52.570;13.052;2023-03-08T01:46:34;99526.00;;;7.90
23208;BMP180;11773;52.570;13.052;2023-03-08T01:49:31;99515.00;;;7.90
23208;BMP180;11773;52.570;13.052;2023-03-08T01:52:00;99517.00;;;7.90
23208;BMP180;11773;52.570;13.052;2023-03-08T01:54:38;99527.00;;;7.90
23208;BMP180;11773;52.570;13.052;2023-03-08T01:57:08;99530.00;;;7.90
23208;BMP180;11773;52.570;13.052;2023-03-08T01:59:39;99518.00;;;7.80
23208;BMP180;11773;52.570;13.052;2023-03-08T02:02:09;99524.00;;;7.80
23208;BMP180;11773;52.570;13.052;2023-03-08T02:04:40;99521.00;;;7.80
23208;BMP180;11773;52.570;13.052;2023-03-08T02:07:09;99526.00;;;7.80
23208;BMP180;11773;52.570;13.052;2023-03-08T02:09:39;99523.00;;;7.80
23208;BMP180;11773;52.570;13.052;2023-03-08T02:12:11;99526.00;;;7.80
23208;BMP180;11773;52.570;13.052;2023-03-08T02:14:44;99529.00;;;7.80
23208;BMP180;11773;52.570;13.052;2023-03-08T02:17:14;99532.00;;;7.80
23208;BMP180;11773;52.570;13.052;2023-03-08T02:19:56;99518.00;;;7.80
23208;BMP180;11773;52.570;13.052;2023-03-08T02:22:27;99518.00;;;7.70
23208;BMP180;11773;52.570;13.052;2023-03-08T02:24:56;99523.00;;;7.70
23208;BMP180;11773;52.570;13.052;2023-03-08T02:27:27;99533.00;;;7.70
23208;BMP180;11773;52.570;13.052;2023-03-08T02:29:57;99527.00;;;7.70
23208;BMP180;11773;52.570;13.052;2023-03-08T02:32:26;99540.00;;;7.70
23208;BMP180;11773;52.570;13.052;2023-03-08T02:34:56;99531.00;;;7.70
23208;BMP180;11773;52.570;13.052;2023-03-08T02:37:25;99537.00;;;7.70
23208;BMP180;11773;52.570;13.052;2023-03-08T02:39:55;99550.00;;;7.70
23208;BMP180;11773;52.570;13.052;2023-03-08T02:42:24;99539.00;;;7.70
23208;BMP180;11773;52.570;13.052;2023-03-08T02:44:54;99548.00;;;7.70
23208;BMP180;11773;52.570;13.052;2023-03-08T02:47:23;99543.00;;;7.70
23208;BMP180;11773;52.570;13.052;2023-03-08T02:49:53;99543.00;;;7.70
23208;BMP180;11773;52.570;13.052;2023-03-08T02:52:22;99542.00;;;7.70
23208;BMP180;11773;52.570;13.052;2023-03-08T02:54:52;99545.00;;;7.60
23208;BMP180;11773;52.570;13.052;2023-03-08T02:57:21;99538.00;;;7.60
23208;BMP180;11773;52.570;13.052;2023-03-08T02:59:51;99531.00;;;7.60
23208;BMP180;11773;52.570;13.052;2023-03-08T03:02:20;99533.00;;;7.60
23208;BMP180;11773;52.570;13.052;2023-03-08T03:04:50;99543.00;;;7.60
23208;BMP180;11773;52.570;13.052;2023-03-08T03:07:19;99547.00;;;7.60
23208;BMP180;11773;52.570;13.052;2023-03-08T03:09:48;99563.00;;;7.60
23208;BMP180;11773;52.570;13.052;2023-03-08T03:12:18;99538.00;;;7.60
23208;BMP180;11773;52.570;13.052;2023-03-08T03:14:47;99541.00;;;7.60
23208;BMP180;11773;52.570;13.052;2023-03-08T03:17:17;99541.00;;;7.50
23208;BMP180;11773;52.570;13.052;2023-03-08T03:19:46;99538.00;;;7.50
23208;BMP180;11773;52.570;13.052;2023-03-08T03:22:16;99515.00;;;7.50
23208;BMP180;11773;52.570;13.052;2023-03-08T03:24:45;99557.00;;;7.50
23208;BMP180;11773;52.570;13.052;2023-03-08T03:27:15;99541.00;;;7.50
23208;BMP180;11773;52.570;13.052;2023-03-08T03:29:44;99541.00;;;7.50
23208;BMP180;11773;52.570;13.052;2023-03-08T03:32:14;99550.00;;;7.50
23208;BMP180;11773;52.570;13.052;2023-03-08T03:34:43;99571.00;;;7.50
23208;BMP180;11773;52.570;13.052;2023-03-08T03:37:13;99554.00;;;7.40
23208;BMP180;11773;52.570;13.052;2023-03-08T03:39:42;99556.00;;;7.50
23208;BMP180;11773;52.570;13.052;2023-03-08T03:42:12;99561.00;;;7.40
23208;BMP180;11773;52.570;13.052;2023-03-08T03:44:41;99571.00;;;7.40
23208;BMP180;11773;52.570;13.052;2023-03-08T03:47:11;99560.00;;;7.40
23208;BMP180;11773;52.570;13.052;2023-03-08T03:49:40;99584.00;;;7.40
23208;BMP180;11773;52.570;13.052;2023-03-08T03:52:10;99573.00;;;7.40
23208;BMP180;11773;52.570;13.052;2023-03-08T03:54:39;99568.00;;;7.30
23208;BMP180;11773;52.570;13.052;2023-03-08T03:57:08;99568.00;;;7.30
23208;BMP180;11773;52.570;13.052;2023-03-08T03:59:38;99581.00;;;7.30
23208;BMP180;11773;52.570;13.052;2023-03-08T04:02:07;99590.00;;;7.30
23208;BMP180;11773;52.570;13.052;2023-03-08T04:04:38;99578.00;;;7.30
23208;BMP180;11773;52.570;13.052;2023-03-08T04:07:10;99574.00;;;7.30
23208;BMP180;11773;52.570;13.052;2023-03-08T04:09:40;99572.00;;;7.30
23208;BMP180;11773;52.570;13.052;2023-03-08T04:12:09;99576.00;;;7.30
23208;BMP180;11773;52.570;13.052;2023-03-08T04:14:39;99582.00;;;7.30
23208;BMP180;11773;52.570;13.052;2023-03-08T04:17:09;99586.00;;;7.30
23208;BMP180;11773;52.570;13.052;2023-03-08T04:19:38;99588.00;;;7.30
23208;BMP180;11773;52.570;13.052;2023-03-08T04:22:07;99573.00;;;7.30
23208;BMP180;11773;52.570;13.052;2023-03-08T04:24:37;99580.00;;;7.30
23208;BMP180;11773;52.570;13.052;2023-03-08T04:27:06;99585.00;;;7.30
23208;BMP180;11773;52.570;13.052;2023-03-08T04:29:36;99592.00;;;7.30
23208;BMP180;11773;52.570;13.052;2023-03-08T04:32:05;99579.00;;;7.30
23208;BMP180;11773;52.570;13.052;2023-03-08T04:34:35;99587.00;;;7.30
23208;BMP180;11773;52.570;13.052;2023-03-08T04:37:04;99582.00;;;7.30
23208;BMP180;11773;52.570;13.052;2023-03-08T04:39:34;99581.00;;;7.20
23208;BMP180;11773;52.570;13.052;2023-03-08T04:42:04;99585.00;;;7.20
23208;BMP180;11773;52.570;13.052;2023-03-08T04:44:33;99575.00;;;7.20
23208;BMP180;11773;52.570;13.052;2023-03-08T04:47:03;99575.00;;;7.20
23208;BMP180;11773;52.570;13.052;2023-03-08T04:49:32;99578.00;;;7.20
23208;BMP180;11773;52.570;13.052;2023-03-08T04:52:02;99578.00;;;7.20
23208;BMP180;11773;52.570;13.052;2023-03-08T04:54:31;99569.00;;;7.20
23208;BMP180;11773;52.570;13.052;2023-03-08T04:57:01;99573.00;;;7.10
23208;BMP180;11773;52.570;13.052;2023-03-08T04:59:30;99574.00;;;7.10
23208;BMP180;11773;52.570;13.052;2023-03-08T05:02:00;99563.00;;;7.10
23208;BMP180;11773;52.570;13.052;2023-03-08T05:04:29;99580.00;;;7.10
23208;BMP180;11773;52.570;13.052;2023-03-08T05:06:59;99562.00;;;7.10
23208;BMP180;11773;52.570;13.052;2023-03-08T05:09:28;99575.00;;;7.10
23208;BMP180;11773;52.570;13.052;2023-03-08T05:11:58;99570.00;;;7.00
23208;BMP180;11773;52.570;13.052;2023-03-08T05:14:27;99565.00;;;7.00
23208;BMP180;11773;52.570;13.052;2023-03-08T05:16:57;99570.00;;;7.00
23208;BMP180;11773;52.570;13.052;2023-03-08T05:19:28;99577.00;;;7.00
23208;BMP180;11773;52.570;13.052;2023-03-08T05:21:58;99576.00;;;6.90
23208;BMP180;11773;52.570;13.052;2023-03-08T05:24:27;99575.00;;;6.90
23208;BMP180;11773;52.570;13.052;2023-03-08T05:26:57;99577.00;;;6.90
23208;BMP180;11773;52.570;13.052;2023-03-08T05:29:26;99597.00;;;6.90
23208;BMP180;11773;52.570;13.052;2023-03-08T05:31:55;99581.00;;;6.80
23208;BMP180;11773;52.570;13.052;2023-03-08T05:34:26;99593.00;;;6.80
23208;BMP180;11773;52.570;13.052;2023-03-08T05:36:56;99589.00;;;6.80
23208;BMP180;11773;52.570;13.052;2023-03-08T05:39:27;99584.00;;;6.70
23208;BMP180;11773;52.570;13.052;2023-03-08T05:41:57;99589.00;;;6.70
23208;BMP180;11773;52.570;13.052;2023-03-08T05:44:27;99595.00;;;6.70
23208;BMP180;11773;52.570;13.052;2023-03-08T05:46:57;99601.00;;;6.70
23208;BMP180;11773;52.570;13.052;2023-03-08T05:49:26;99599.00;;;6.60
23208;BMP180;11773;52.570;13.052;2023-03-08T05:51:56;99593.00;;;6.60
23208;BMP180;11773;52.570;13.052;2023-03-08T05:54:25;99594.00;;;6.60
23208;BMP180;11773;52.570;13.052;2023-03-08T05:56:55;99598.00;;;6.60
23208;BMP180;11773;52.570;13.052;2023-03-08T05:59:24;99599.00;;;6.60
23208;BMP180;11773;52.570;13.052;2023-03-08T06:01:54;99603.00;;;6.50
23208;BMP180;11773;52.570;13.052;2023-03-08T06:04:23;99602.00;;;6.50
23208;BMP180;11773;52.570;13.052;2023-03-08T06:06:52;99603.00;;;6.50
23208;BMP180;11773;52.570;13.052;2023-03-08T06:09:22;99598.00;;;6.50
23208;BMP180;11773;52.570;13.052;2023-03-08T06:11:51;99597.00;;;6.50
23208;BMP180;11773;52.570;13.052;2023-03-08T06:14:22;99596.00;;;6.40
23208;BMP180;11773;52.570;13.052;2023-03-08T06:16:52;99605.00;;;6.40
23208;BMP180;11773;52.570;13.052;2023-03-08T06:19:21;99596.00;;;6.40
23208;BMP180;11773;52.570;13.052;2023-03-08T06:21:51;99613.00;;;6.40
23208;BMP180;11773;52.570;13.052;2023-03-08T06:24:20;99612.00;;;6.50
23208;BMP180;11773;52.570;13.052;2023-03-08T06:26:50;99614.00;;;6.50
23208;BMP180;11773;52.570;13.052;2023-03-08T06:29:20;99617.00;;;6.60
23208;BMP180;11773;52.570;13.052;2023-03-08T06:31:50;99617.00;;;6.60
23208;BMP180;11773;52.570;13.052;2023-03-08T06:34:20;99618.00;;;6.70
23208;BMP180;11773;52.570;13.052;2023-03-08T06:36:49;99625.00;;;6.80
23208;BMP180;11773;52.570;13.052;2023-03-08T06:39:19;99611.00;;;6.90
23208;BMP180;11773;52.570;13.052;2023-03-08T06:41:48;99633.00;;;7.10
23208;BMP180;11773;52.570;13.052;2023-03-08T06:44:18;99622.00;;;7.20
23208;BMP180;11773;52.570;13.052;2023-03-08T06:46:47;99619.00;;;7.30
23208;BMP180;11773;52.570;13.052;2023-03-08T06:49:17;99609.00;;;7.50
23208;BMP180;11773;52.570;13.052;2023-03-08T06:51:46;99610.00;;;7.60
23208;BMP180;11773;52.570;13.052;2023-03-08T06:54:16;99613.00;;;7.60
23208;BMP180;11773;52.570;13.052;2023-03-08T06:56:46;99617.00;;;7.70
23208;BMP180;11773;52.570;13.052;2023-03-08T06:59:16;99614.00;;;7.80
23208;BMP180;11773;52.570;13.052;2023-03-08T07:01:45;99619.00;;;7.90
23208;BMP180;11773;52.570;13.052;2023-03-08T07:04:15;99626.00;;;7.90
23208;BMP180;11773;52.570;13.052;2023-03-08T07:06:45;99604.00;;;7.90
23208;BMP180;11773;52.570;13.052;2023-03-08T07:09:16;99605.00;;;8.00
23208;BMP180;11773;52.570;13.052;2023-03-08T07:11:46;99608.00;;;8.10
23208;BMP180;11773;52.570;13.052;2023-03-08T07:14:15;99608.00;;;8.10
23208;BMP180;11773;52.570;13.052;2023-03-08T07:16:45;99624.00;;;8.20
23208;BMP180;11773;52.570;13.052;2023-03-08T07:19:15;99628.00;;;8.30
23208;BMP180;11773;52.570;13.052;2023-03-08T07:21:45;99613.00;;;8.30
23208;BMP180;11773;52.570;13.052;2023-03-08T07:24:14;99609.00;;;8.30
23208;BMP180;11773;52.570;13.052;2023-03-08T07:26:44;99603.00;;;8.30
23208;BMP180;11773;52.570;13.052;2023-03-08T07:29:13;99602.00;;;8.30
23208;BMP180;11773;52.570;13.052;2023-03-08T07:31:43;99606.00;;;8.30
23208;BMP180;11773;52.570;13.052;2023-03-08T07:34:12;99621.00;;;8.40
23208;BMP180;11773;52.570;13.052;2023-03-08T07:36:42;99612.00;;;8.40
23208;BMP180;11773;52.570;13.052;2023-03-08T07:39:11;99620.00;;;8.40
23208;BMP180;11773;52.570;13.052;2023-03-08T07:41:41;99621.00;;;8.40
23208;BMP180;11773;52.570;13.052;2023-03-08T07:44:10;99623.00;;;8.40
23208;BMP180;11773;52.570;13.052;2023-03-08T07:46:40;99618.00;;;8.40
23208;BMP180;11773;52.570;13.052;2023-03-08T07:49:10;99618.00;;;8.40
23208;BMP180;11773;52.570;13.052;2023-03-08T07:51:39;99628.00;;;8.40
23208;BMP180;11773;52.570;13.052;2023-03-08T07:54:11;99616.00;;;8.40
23208;BMP180;11773;52.570;13.052;2023-03-08T07:56:41;99610.00;;;8.40
23208;BMP180;11773;52.570;13.052;2023-03-08T07:59:10;99614.00;;;8.40
23208;BMP180;11773;52.570;13.052;2023-03-08T08:01:40;99615.00;;;8.30
23208;BMP180;11773;52.570;13.052;2023-03-08T08:04:09;99607.00;;;8.30
23208;BMP180;11773;52.570;13.052;2023-03-08T08:06:40;99605.00;;;8.30
23208;BMP180;11773;52.570;13.052;2023-03-08T08:09:12;99622.00;;;8.30
23208;BMP180;11773;52.570;13.052;2023-03-08T08:11:42;99611.00;;;8.30
23208;BMP180;11773;52.570;13.052;2023-03-08T08:14:12;99613.00;;;8.30
23208;BMP180;11773;52.570;13.052;2023-03-08T08:16:41;99614.00;;;8.30
23208;BMP180;11773;52.570;13.052;2023-03-08T08:19:11;99621.00;;;8.30
23208;BMP180;11773;52.570;13.052;2023-03-08T08:21:42;99614.00;;;8.30
23208;BMP180;11773;52.570;13.052;2023-03-08T08:24:11;99607.00;;;8.30
23208;BMP180;11773;52.570;13.052;2023-03-08T08:26:41;99614.00;;;8.40
23208;BMP180;11773;52.570;13.052;2023-03-08T08:29:10;99609.00;;;8.40
23208;BMP180;11773;52.570;13.052;2023-03-08T08:31:40;99609.00;;;8.40
23208;BMP180;11773;52.570;13.052;2023-03-08T08:34:10;99607.00;;;8.50
23208;BMP180;11773;52.570;13.052;2023-03-08T08:36:39;99608.00;;;8.50
23208;BMP180;11773;52.570;13.052;2023-03-08T08:39:09;99616.00;;;8.60
23208;BMP180;11773;52.570;13.052;2023-03-08T08:41:39;99601.00;;;8.60
23208;BMP180;11773;52.570;13.052;2023-03-08T08:44:08;99601.00;;;8.60
23208;BMP180;11773;52.570;13.052;2023-03-08T08:46:38;99591.00;;;8.60
23208;BMP180;11773;52.570;13.052;2023-03-08T08:49:08;99593.00;;;8.70
23208;BMP180;11773;52.570;13.052;2023-03-08T08:51:38;99594.00;;;8.70
23208;BMP180;11773;52.570;13.052;2023-03-08T08:54:08;99583.00;;;8.70
23208;BMP180;11773;52.570;13.052;2023-03-08T08:56:38;99582.00;;;8.80
23208;BMP180;11773;52.570;13.052;2023-03-08T08:59:11;99587.00;;;8.80
23208;BMP180;11773;52.570;13.052;2023-03-08T09:01:42;99569.00;;;8.90
23208;BMP180;11773;52.570;13.052;2023-03-08T09:04:13;99574.00;;;8.90
23208;BMP180;11773;52.570;13.052;2023-03-08T09:06:44;99583.00;;;9.00
23208;BMP180;11773;52.570;13.052;2023-03-08T09:09:16;99575.00;;;9.00
23208;BMP180;11773;52.570;13.052;2023-03-08T09:11:45;99568.00;;;9.10
23208;BMP180;11773;52.570;13.052;2023-03-08T09:14:17;99590.00;;;9.10
23208;BMP180;11773;52.570;13.052;2023-03-08T09:16:46;99577.00;;;9.10
23208;BMP180;11773;52.570;13.052;2023-03-08T09:19:16;99575.00;;;9.20
23208;BMP180;11773;52.570;13.052;2023-03-08T09:21:46;99576.00;;;9.20
23208;BMP180;11773;52.570;13.052;2023-03-08T09:24:15;99574.00;;;9.20
23208;BMP180;11773;52.570;13.052;2023-03-08T09:26:45;99573.00;;;9.30
23208;BMP180;11773;52.570;13.052;2023-03-08T09:29:14;99569.00;;;9.30
23208;BMP180;11773;52.570;13.052;2023-03-08T09:31:44;99572.00;;;9.30
23208;BMP180;11773;52.570;13.052;2023-03-08T09:34:14;99581.00;;;9.30
23208;BMP180;11773;52.570;13.052;2023-03-08T09:36:43;99560.00;;;9.40
23208;BMP180;11773;52.570;13.052;2023-03-08T09:39:13;99579.00;;;9.40
23208;BMP180;11773;52.570;13.052;2023-03-08T09:41:53;99569.00;;;9.40
23208;BMP180;11773;52.570;13.052;2023-03-08T09:47:39;99553.00;;;9.40
23208;BMP180;11773;52.570;13.052;2023-03-08T09:50:23;99557.00;;;9.50
23208;BMP180;11773;52.570;13.052;2023-03-08T09:56:06;99551.00;;;9.50
23208;BMP180;11773;52.570;13.052;2023-03-08T09:58:46;99549.00;;;9.50
23208;BMP180;11773;52.570;13.052;2023-03-08T10:01:37;99549.00;;;9.50
23208;BMP180;11773;52.570;13.052;2023-03-08T10:04:48;99539.00;;;9.60
23208;BMP180;11773;52.570;13.052;2023-03-08T10:07:46;99549.00;;;9.60
23208;BMP180;11773;52.570;13.052;2023-03-08T10:10:40;99534.00;;;9.60
23208;BMP180;11773;52.570;13.052;2023-03-08T10:13:27;99543.00;;;9.60
23208;BMP180;11773;52.570;13.052;2023-03-08T10:16:15;99525.00;;;9.70
23208;BMP180;11773;52.570;13.052;2023-03-08T10:21:21;99524.00;;;9.80
23208;BMP180;11773;52.570;13.052;2023-03-08T10:24:15;99534.00;;;9.90
23208;BMP180;11773;52.570;13.052;2023-03-08T10:26:45;99529.00;;;9.90
23208;BMP180;11773;52.570;13.052;2023-03-08T10:29:16;99523.00;;;10.00
23208;BMP180;11773;52.570;13.052;2023-03-08T10:31:46;99512.00;;;10.00
23208;BMP180;11773;52.570;13.052;2023-03-08T10:34:21;99514.00;;;10.10
23208;BMP180;11773;52.570;13.052;2023-03-08T10:37:03;99529.00;;;10.20
23208;BMP180;11773;52.570;13.052;2023-03-08T10:39:36;99520.00;;;10.30
23208;BMP180;11773;52.570;13.052;2023-03-08T10:42:14;99512.00;;;10.30
23208;BMP180;11773;52.570;13.052;2023-03-08T10:44:57;99503.00;;;10.30
23208;BMP180;11773;52.570;13.052;2023-03-08T10:47:35;99503.00;;;10.40
23208;BMP180;11773;52.570;13.052;2023-03-08T10:50:24;99506.00;;;10.40
23208;BMP180;11773;52.570;13.052;2023-03-08T10:52:53;99513.00;;;10.50
23208;BMP180;11773;52.570;13.052;2023-03-08T10:55:28;99499.00;;;10.50
23208;BMP180;11773;52.570;13.052;2023-03-08T11:03:38;99500.00;;;10.60
23208;BMP180;11773;52.570;13.052;2023-03-08T11:06:15;99488.00;;;10.60
23208;BMP180;11773;52.570;13.052;2023-03-08T11:08:59;99490.00;;;10.60
23208;BMP180;11773;52.570;13.052;2023-03-08T11:11:39;99481.00;;;10.60
23208;BMP180;11773;52.570;13.052;2023-03-08T11:14:04;99472.00;;;10.60
23208;BMP180;11773;52.570;13.052;2023-03-08T11:20:18;99468.00;;;10.70
23208;BMP180;11773;52.570;13.052;2023-03-08T11:26:02;99459.00;;;10.70
23208;BMP180;11773;52.570;13.052;2023-03-08T11:29:03;99465.00;;;10.70
23208;BMP180;11773;52.570;13.052;2023-03-08T11:31:48;99451.00;;;10.70
23208;BMP180;11773;52.570;13.052;2023-03-08T11:48:54;99426.00;;;10.80
23208;BMP180;11773;52.570;13.052;2023-03-08T11:57:14;99415.00;;;10.80
23208;BMP180;11773;52.570;13.052;2023-03-08T11:59:52;99417.00;;;10.80
23208;BMP180;11773;52.570;13.052;2023-03-08T12:02:26;99406.00;;;10.80
23208;BMP180;11773;52.570;13.052;2023-03-08T12:05:11;99397.00;;;10.80
23208;BMP180;11773;52.570;13.052;2023-03-08T12:07:52;99406.00;;;10.90
23208;BMP180;11773;52.570;13.052;2023-03-08T12:10:52;99402.00;;;10.90
23208;BMP180;11773;52.570;13.052;2023-03-08T12:13:50;99391.00;;;10.90
23208;BMP180;11773;52.570;13.052;2023-03-08T12:16:25;99399.00;;;10.90
23208;BMP180;11773;52.570;13.052;2023-03-08T12:22:11;99385.00;;;10.80
23208;BMP180;11773;52.570;13.052;2023-03-08T12:25:02;99388.00;;;10.80
23208;BMP180;11773;52.570;13.052;2023-03-08T12:30:32;99387.00;;;10.80
23208;BMP180;11773;52.570;13.052;2023-03-08T12:33:01;99366.00;;;10.80
23208;BMP180;11773;52.570;13.052;2023-03-08T12:35:48;99382.00;;;10.80
23208;BMP180;11773;52.570;13.052;2023-03-08T12:40:54;99364.00;;;10.80
23208;BMP180;11773;52.570;13.052;2023-03-08T12:43:33;99368.00;;;10.80
23208;BMP180;11773;52.570;13.052;2023-03-08T12:46:07;99358.00;;;10.80
23208;BMP180;11773;52.570;13.052;2023-03-08T12:48:46;99368.00;;;10.80
23208;BMP180;11773;52.570;13.052;2023-03-08T12:51:32;99360.00;;;10.80
23208;BMP180;11773;52.570;13.052;2023-03-08T12:54:03;99375.00;;;10.80
23208;BMP180;11773;52.570;13.052;2023-03-08T12:56:49;99360.00;;;10.90
23208;BMP180;11773;52.570;13.052;2023-03-08T12:59:24;99378.00;;;10.90
23208;BMP180;11773;52.570;13.052;2023-03-08T13:02:20;99361.00;;;10.90
23208;BMP180;11773;52.570;13.052;2023-03-08T13:04:37;99366.00;;;10.90
23208;BMP180;11773;52.570;13.052;2023-03-08T13:09:58;99358.00;;;10.90
23208;BMP180;11773;52.570;13.052;2023-03-08T13:12:40;99360.00;;;10.90
23208;BMP180;11773;52.570;13.052;2023-03-08T13:15:21;99367.00;;;10.90
23208;BMP180;11773;52.570;13.052;2023-03-08T13:18:01;99362.00;;;10.80
23208;BMP180;11773;52.570;13.052;2023-03-08T13:20:48;99367.00;;;10.80
23208;BMP180;11773;52.570;13.052;2023-03-08T13:23:20;99372.00;;;10.80
23208;BMP180;11773;52.570;13.052;2023-03-08T13:28:43;99374.00;;;10.70
23208;BMP180;11773;52.570;13.052;2023-03-08T13:31:19;99369.00;;;10.60
23208;BMP180;11773;52.570;13.052;2023-03-08T13:33:52;99368.00;;;10.60
23208;BMP180;11773;52.570;13.052;2023-03-08T13:36:28;99371.00;;;10.60
23208;BMP180;11773;52.570;13.052;2023-03-08T13:39:05;99365.00;;;10.60
23208;BMP180;11773;52.570;13.052;2023-03-08T13:41:43;99366.00;;;10.60
23208;BMP180;11773;52.570;13.052;2023-03-08T13:44:22;99357.00;;;10.60
23208;BMP180;11773;52.570;13.052;2023-03-08T13:46:56;99358.00;;;10.60
23208;BMP180;11773;52.570;13.052;2023-03-08T13:49:30;99358.00;;;10.60
23208;BMP180;11773;52.570;13.052;2023-03-08T13:52:09;99369.00;;;10.60
23208;BMP180;11773;52.570;13.052;2023-03-08T13:54:58;99365.00;;;10.60
23208;BMP180;11773;52.570;13.052;2023-03-08T13:57:34;99356.00;;;10.60
23208;BMP180;11773;52.570;13.052;2023-03-08T14:00:32;99365.00;;;10.60
23208;BMP180;11773;52.570;13.052;2023-03-08T14:03:04;99364.00;;;10.50
23208;BMP180;11773;52.570;13.052;2023-03-08T14:05:43;99368.00;;;10.50
23208;BMP180;11773;52.570;13.052;2023-03-08T14:08:23;99375.00;;;10.50
23208;BMP180;11773;52.570;13.052;2023-03-08T14:10:59;99369.00;;;10.50
23208;BMP180;11773;52.570;13.052;2023-03-08T14:13:36;99372.00;;;10.50
23208;BMP180;11773;52.570;13.052;2023-03-08T14:16:08;99367.00;;;10.50
23208;BMP180;11773;52.570;13.052;2023-03-08T14:18:41;99371.00;;;10.50
23208;BMP180;11773;52.570;13.052;2023-03-08T14:21:20;99362.00;;;10.50
23208;BMP180;11773;52.570;13.052;2023-03-08T14:23:59;99366.00;;;10.50
23208;BMP180;11773;52.570;13.052;2023-03-08T14:26:35;99374.00;;;10.40
23208;BMP180;11773;52.570;13.052;2023-03-08T14:29:21;99358.00;;;10.40
23208;BMP180;11773;52.570;13.052;2023-03-08T14:34:47;99354.00;;;10.40
23208;BMP180;11773;52.570;13.052;2023-03-08T14:37:26;99360.00;;;10.30
23208;BMP180;11773;52.570;13.052;2023-03-08T14:40:35;99367.00;;;10.30
23208;BMP180;11773;52.570;13.052;2023-03-08T14:43:18;99349.00;;;10.30
23208;BMP180;11773;52.570;13.052;2023-03-08T14:46:00;99357.00;;;10.30
23208;BMP180;11773;52.570;13.052;2023-03-08T14:48:34;99347.00;;;10.20
23208;BMP180;11773;52.570;13.052;2023-03-08T14:54:02;99343.00;;;10.20
23208;BMP180;11773;52.570;13.052;2023-03-08T14:56:33;99343.00;;;10.20
23208;BMP180;11773;52.570;13.052;2023-03-08T14:59:04;99350.00;;;10.20
23208;BMP180;11773;52.570;13.052;2023-03-08T15:01:36;99341.00;;;10.20
23208;BMP180;11773;52.570;13.052;2023-03-08T15:04:19;99337.00;;;10.10
23208;BMP180;11773;52.570;13.052;2023-03-08T15:06:51;99338.00;;;10.10
23208;BMP180;11773;52.570;13.052;2023-03-08T15:09:22;99340.00;;;10.10
23208;BMP180;11773;52.570;13.052;2023-03-08T15:11:53;99332.00;;;10.00
23208;BMP180;11773;52.570;13.052;2023-03-08T15:14:26;99327.00;;;10.00
23208;BMP180;11773;52.570;13.052;2023-03-08T15:16:57;99329.00;;;10.00
23208;BMP180;11773;52.570;13.052;2023-03-08T15:19:27;99324.00;;;10.00
23208;BMP180;11773;52.570;13.052;2023-03-08T15:21:57;99328.00;;;10.00
23208;BMP180;11773;52.570;13.052;2023-03-08T15:24:28;99311.00;;;10.00
23208;BMP180;11773;52.570;13.052;2023-03-08T15:26:57;99308.00;;;10.00
23208;BMP180;11773;52.570;13.052;2023-03-08T15:29:30;99311.00;;;10.00
23208;BMP180;11773;52.570;13.052;2023-03-08T15:32:00;99311.00;;;10.00
23208;BMP180;11773;52.570;13.052;2023-03-08T15:34:30;99328.00;;;10.00
23208;BMP180;11773;52.570;13.052;2023-03-08T15:37:00;99312.00;;;10.00